sensor_id;sensor_type;location;lat;lon;timestamp;pressure;altitude;pressure_sealevel;temperature
67822;BMP180;54434;50.096;20.082;2022-07-29T00:01:01;99227.00;;;15.60
67822;BMP180;54434;50.096;20.082;2022-07-29T00:03:37;99229.80;;;15.60
67822;BMP180;54434;50.096;20.082;2022-07-29T00:06:14;99226.00;;;15.60
67822;BMP180;54434;50.096;20.082;2022-07-29T00:08:50;99224.00;;;15.60
67822;BMP180;54434;50.096;20.082;2022-07-29T00:11:26;99225.00;;;15.60
67822;BMP180;54434;50.096;20.082;2022-07-29T00:14:02;99227.00;;;15.50
67822;BMP180;54434;50.096;20.082;2022-07-29T00:16:38;99226.00;;;15.50
67822;BMP180;54434;50.096;20.082;2022-07-29T00:19:15;99230.40;;;15.50
67822;BMP180;54434;50.096;20.082;2022-07-29T00:21:51;99223.40;;;15.50
67822;BMP180;54434;50.096;20.082;2022-07-29T00:24:26;99227.80;;;15.50
67822;BMP180;54434;50.096;20.082;2022-07-29T00:27:03;99227.60;;;15.50
67822;BMP180;54434;50.096;20.082;2022-07-29T00:29:39;99228.00;;;15.42
67822;BMP180;54434;50.096;20.082;2022-07-29T00:32:15;99232.00;;;15.40
67822;BMP180;54434;50.096;20.082;2022-07-29T00:34:52;99235.20;;;15.40
67822;BMP180;54434;50.096;20.082;2022-07-29T00:37:46;99238.80;;;15.40
67822;BMP180;54434;50.096;20.082;2022-07-29T00:40:22;99238.80;;;15.40
67822;BMP180;54434;50.096;20.082;2022-07-29T00:42:58;99235.40;;;15.36
67822;BMP180;54434;50.096;20.082;2022-07-29T00:45:35;99230.80;;;15.32
67822;BMP180;54434;50.096;20.082;2022-07-29T00:48:11;99226.80;;;15.30
67822;BMP180;54434;50.096;20.082;2022-07-29T00:50:47;99226.00;;;15.30
67822;BMP180;54434;50.096;20.082;2022-07-29T00:53:26;99230.00;;;15.32
67822;BMP180;54434;50.096;20.082;2022-07-29T00:56:02;99227.00;;;15.30
67822;BMP180;54434;50.096;20.082;2022-07-29T00:58:39;99222.80;;;15.34
67822;BMP180;54434;50.096;20.082;2022-07-29T01:01:15;99221.80;;;15.38
67822;BMP180;54434;50.096;20.082;2022-07-29T01:03:52;99219.20;;;15.38
67822;BMP180;54434;50.096;20.082;2022-07-29T01:06:28;99213.60;;;15.40
67822;BMP180;54434;50.096;20.082;2022-07-29T01:09:04;99213.60;;;15.40
67822;BMP180;54434;50.096;20.082;2022-07-29T01:11:42;99211.40;;;15.40
67822;BMP180;54434;50.096;20.082;2022-07-29T01:14:20;99214.40;;;15.40
67822;BMP180;54434;50.096;20.082;2022-07-29T01:17:11;99211.40;;;15.40
67822;BMP180;54434;50.096;20.082;2022-07-29T01:20:00;99208.80;;;15.40
67822;BMP180;54434;50.096;20.082;2022-07-29T01:23:10;99211.60;;;15.40
67822;BMP180;54434;50.096;20.082;2022-07-29T01:29:18;99207.80;;;15.50
67822;BMP180;54434;50.096;20.082;2022-07-29T01:31:58;99208.80;;;15.50
67822;BMP180;54434;50.096;20.082;2022-07-29T01:34:44;99209.60;;;15.50
67822;BMP180;54434;50.096;20.082;2022-07-29T01:37:32;99206.60;;;15.50
67822;BMP180;54434;50.096;20.082;2022-07-29T01:40:22;99203.20;;;15.50
67822;BMP180;54434;50.096;20.082;2022-07-29T01:43:09;99204.20;;;15.50
67822;BMP180;54434;50.096;20.082;2022-07-29T01:45:53;99205.20;;;15.50
67822;BMP180;54434;50.096;20.082;2022-07-29T01:48:43;99204.80;;;15.50
67822;BMP180;54434;50.096;20.082;2022-07-29T01:51:31;99201.60;;;15.50
67822;BMP180;54434;50.096;20.082;2022-07-29T01:54:14;99200.80;;;15.50
67822;BMP180;54434;50.096;20.082;2022-07-29T01:56:56;99201.00;;;15.50
67822;BMP180;54434;50.096;20.082;2022-07-29T01:59:36;99204.20;;;15.50
67822;BMP180;54434;50.096;20.082;2022-07-29T02:02:15;99204.20;;;15.50
67822;BMP180;54434;50.096;20.082;2022-07-29T02:04:53;99201.00;;;15.50
67822;BMP180;54434;50.096;20.082;2022-07-29T02:07:33;99191.80;;;15.50
67822;BMP180;54434;50.096;20.082;2022-07-29T02:10:13;99195.60;;;15.50
67822;BMP180;54434;50.096;20.082;2022-07-29T02:12:55;99197.20;;;15.50
67822;BMP180;54434;50.096;20.082;2022-07-29T02:15:35;99195.80;;;15.50
67822;BMP180;54434;50.096;20.082;2022-07-29T02:18:16;99188.00;;;15.50
67822;BMP180;54434;50.096;20.082;2022-07-29T02:20:58;99185.80;;;15.50
67822;BMP180;54434;50.096;20.082;2022-07-29T02:23:36;99186.00;;;15.50
67822;BMP180;54434;50.096;20.082;2022-07-29T02:26:28;99182.40;;;15.50
67822;BMP180;54434;50.096;20.082;2022-07-29T02:29:05;99184.80;;;15.40
67822;BMP180;54434;50.096;20.082;2022-07-29T02:31:45;99179.20;;;15.40
67822;BMP180;54434;50.096;20.082;2022-07-29T02:34:23;99181.40;;;15.40
67822;BMP180;54434;50.096;20.082;2022-07-29T02:37:00;99180.40;;;15.40
67822;BMP180;54434;50.096;20.082;2022-07-29T02:39:42;99176.80;;;15.30
67822;BMP180;54434;50.096;20.082;2022-07-29T02:42:22;99175.80;;;15.30
67822;BMP180;54434;50.096;20.082;2022-07-29T02:44:59;99177.60;;;15.30
67822;BMP180;54434;50.096;20.082;2022-07-29T02:47:42;99169.40;;;15.28
67822;BMP180;54434;50.096;20.082;2022-07-29T02:50:28;99167.00;;;15.20
67822;BMP180;54434;50.096;20.082;2022-07-29T02:53:14;99168.40;;;15.20
67822;BMP180;54434;50.096;20.082;2022-07-29T02:55:58;99166.20;;;15.20
67822;BMP180;54434;50.096;20.082;2022-07-29T02:58:40;99158.20;;;15.20
67822;BMP180;54434;50.096;20.082;2022-07-29T03:01:22;99158.00;;;15.20
67822;BMP180;54434;50.096;20.082;2022-07-29T03:04:03;99158.80;;;15.20
67822;BMP180;54434;50.096;20.082;2022-07-29T03:06:41;99158.00;;;15.20
67822;BMP180;54434;50.096;20.082;2022-07-29T03:09:19;99157.80;;;15.20
67822;BMP180;54434;50.096;20.082;2022-07-29T03:11:57;99159.00;;;15.22
67822;BMP180;54434;50.096;20.082;2022-07-29T03:14:34;99159.00;;;15.26
67822;BMP180;54434;50.096;20.082;2022-07-29T03:17:12;99155.60;;;15.24
67822;BMP180;54434;50.096;20.082;2022-07-29T03:19:49;99163.60;;;15.26
67822;BMP180;54434;50.096;20.082;2022-07-29T03:22:26;99161.20;;;15.22
67822;BMP180;54434;50.096;20.082;2022-07-29T03:25:11;99161.60;;;15.20
67822;BMP180;54434;50.096;20.082;2022-07-29T03:27:48;99164.40;;;15.20
67822;BMP180;54434;50.096;20.082;2022-07-29T03:30:24;99165.80;;;15.20
67822;BMP180;54434;50.096;20.082;2022-07-29T03:33:00;99160.80;;;15.20
67822;BMP180;54434;50.096;20.082;2022-07-29T03:35:47;99162.80;;;15.20
67822;BMP180;54434;50.096;20.082;2022-07-29T03:38:28;99169.60;;;15.20
67822;BMP180;54434;50.096;20.082;2022-07-29T03:41:13;99164.00;;;15.20
67822;BMP180;54434;50.096;20.082;2022-07-29T03:43:57;99162.20;;;15.20
67822;BMP180;54434;50.096;20.082;2022-07-29T03:46:37;99164.80;;;15.20
67822;BMP180;54434;50.096;20.082;2022-07-29T03:49:16;99171.60;;;15.28
67822;BMP180;54434;50.096;20.082;2022-07-29T03:51:52;99166.20;;;15.30
67822;BMP180;54434;50.096;20.082;2022-07-29T03:54:29;99172.40;;;15.30
67822;BMP180;54434;50.096;20.082;2022-07-29T03:57:07;99179.00;;;15.30
67822;BMP180;54434;50.096;20.082;2022-07-29T03:59:44;99181.40;;;15.30
67822;BMP180;54434;50.096;20.082;2022-07-29T04:02:20;99187.00;;;15.40
67822;BMP180;54434;50.096;20.082;2022-07-29T04:05:05;99180.80;;;15.48
67822;BMP180;54434;50.096;20.082;2022-07-29T04:07:50;99182.20;;;15.70
67822;BMP180;54434;50.096;20.082;2022-07-29T04:10:26;99179.00;;;16.12
67822;BMP180;54434;50.096;20.082;2022-07-29T04:13:07;99179.40;;;16.72
67822;BMP180;54434;50.096;20.082;2022-07-29T04:15:43;99180.40;;;17.10
67822;BMP180;54434;50.096;20.082;2022-07-29T04:18:19;99180.40;;;17.48
67822;BMP180;54434;50.096;20.082;2022-07-29T04:20:55;99178.00;;;17.82
67822;BMP180;54434;50.096;20.082;2022-07-29T04:23:33;99179.80;;;18.10
67822;BMP180;54434;50.096;20.082;2022-07-29T04:26:26;99176.00;;;18.50
67822;BMP180;54434;50.096;20.082;2022-07-29T04:29:02;99174.20;;;19.02
67822;BMP180;54434;50.096;20.082;2022-07-29T04:31:39;99178.00;;;19.54
67822;BMP180;54434;50.096;20.082;2022-07-29T04:34:15;99180.80;;;20.02
67822;BMP180;54434;50.096;20.082;2022-07-29T04:36:53;99188.20;;;20.40
67822;BMP180;54434;50.096;20.082;2022-07-29T04:39:29;99187.40;;;20.70
67822;BMP180;54434;50.096;20.082;2022-07-29T04:42:08;99188.00;;;21.10
67822;BMP180;54434;50.096;20.082;2022-07-29T04:44:44;99180.40;;;21.40
67822;BMP180;54434;50.096;20.082;2022-07-29T04:47:23;99183.40;;;21.60
67822;BMP180;54434;50.096;20.082;2022-07-29T04:49:59;99182.40;;;21.80
67822;BMP180;54434;50.096;20.082;2022-07-29T04:52:36;99181.60;;;22.16
67822;BMP180;54434;50.096;20.082;2022-07-29T04:55:13;99182.00;;;22.40
67822;BMP180;54434;50.096;20.082;2022-07-29T04:57:49;99186.20;;;22.60
67822;BMP180;54434;50.096;20.082;2022-07-29T05:00:25;99184.00;;;22.70
67822;BMP180;54434;50.096;20.082;2022-07-29T05:03:07;99189.80;;;22.86
67822;BMP180;54434;50.096;20.082;2022-07-29T05:05:43;99184.60;;;23.00
67822;BMP180;54434;50.096;20.082;2022-07-29T05:08:19;99183.80;;;23.22
67822;BMP180;54434;50.096;20.082;2022-07-29T05:10:55;99183.00;;;23.44
67822;BMP180;54434;50.096;20.082;2022-07-29T05:13:45;99190.20;;;23.70
67822;BMP180;54434;50.096;20.082;2022-07-29T05:16:21;99186.60;;;23.90
67822;BMP180;54434;50.096;20.082;2022-07-29T05:18:57;99174.40;;;23.90
67822;BMP180;54434;50.096;20.082;2022-07-29T05:21:33;99177.60;;;24.00
67822;BMP180;54434;50.096;20.082;2022-07-29T05:24:10;99173.80;;;23.88
67822;BMP180;54434;50.096;20.082;2022-07-29T05:26:46;99176.80;;;23.90
67822;BMP180;54434;50.096;20.082;2022-07-29T05:29:22;99176.60;;;23.90
67822;BMP180;54434;50.096;20.082;2022-07-29T05:32:18;99183.40;;;23.98
67822;BMP180;54434;50.096;20.082;2022-07-29T05:34:54;99191.40;;;24.00
67822;BMP180;54434;50.096;20.082;2022-07-29T05:37:30;99190.40;;;24.16
67822;BMP180;54434;50.096;20.082;2022-07-29T05:40:09;99191.00;;;24.22
67822;BMP180;54434;50.096;20.082;2022-07-29T05:42:45;99182.80;;;24.40
67822;BMP180;54434;50.096;20.082;2022-07-29T05:45:22;99185.60;;;24.50
67822;BMP180;54434;50.096;20.082;2022-07-29T05:47:59;99185.80;;;24.70
67822;BMP180;54434;50.096;20.082;2022-07-29T05:50:35;99185.60;;;24.80
67822;BMP180;54434;50.096;20.082;2022-07-29T05:53:21;99190.20;;;24.90
67822;BMP180;54434;50.096;20.082;2022-07-29T05:55:57;99188.20;;;24.98
67822;BMP180;54434;50.096;20.082;2022-07-29T05:58:33;99187.60;;;25.20
67822;BMP180;54434;50.096;20.082;2022-07-29T06:01:10;99199.00;;;25.30
67822;BMP180;54434;50.096;20.082;2022-07-29T06:03:46;99202.40;;;25.50
67822;BMP180;54434;50.096;20.082;2022-07-29T06:06:22;99201.60;;;25.80
67822;BMP180;54434;50.096;20.082;2022-07-29T06:08:58;99206.20;;;25.90
67822;BMP180;54434;50.096;20.082;2022-07-29T06:11:46;99206.40;;;25.96
67822;BMP180;54434;50.096;20.082;2022-07-29T06:14:22;99208.60;;;26.00
67822;BMP180;54434;50.096;20.082;2022-07-29T06:16:58;99209.80;;;26.10
67822;BMP180;54434;50.096;20.082;2022-07-29T06:19:37;99198.60;;;26.00
67822;BMP180;54434;50.096;20.082;2022-07-29T06:22:17;99195.60;;;26.20
67822;BMP180;54434;50.096;20.082;2022-07-29T06:24:53;99199.60;;;26.20
67822;BMP180;54434;50.096;20.082;2022-07-29T06:27:30;99198.80;;;26.20
67822;BMP180;54434;50.096;20.082;2022-07-29T06:30:08;99198.40;;;26.40
67822;BMP180;54434;50.096;20.082;2022-07-29T06:32:44;99201.60;;;26.54
67822;BMP180;54434;50.096;20.082;2022-07-29T06:35:21;99204.20;;;26.74
67822;BMP180;54434;50.096;20.082;2022-07-29T06:38:16;99206.00;;;27.00
67822;BMP180;54434;50.096;20.082;2022-07-29T06:41:10;99210.60;;;27.40
67822;BMP180;54434;50.096;20.082;2022-07-29T06:43:50;99213.60;;;27.50
67822;BMP180;54434;50.096;20.082;2022-07-29T06:46:30;99207.00;;;27.70
67822;BMP180;54434;50.096;20.082;2022-07-29T06:49:07;99217.60;;;27.90
67822;BMP180;54434;50.096;20.082;2022-07-29T06:51:43;99210.00;;;27.80
67822;BMP180;54434;50.096;20.082;2022-07-29T06:54:19;99211.00;;;27.78
67822;BMP180;54434;50.096;20.082;2022-07-29T06:56:56;99209.20;;;27.80
67822;BMP180;54434;50.096;20.082;2022-07-29T06:59:33;99205.80;;;27.60
67822;BMP180;54434;50.096;20.082;2022-07-29T07:02:09;99213.00;;;27.60
67822;BMP180;54434;50.096;20.082;2022-07-29T07:04:45;99209.60;;;27.36
67822;BMP180;54434;50.096;20.082;2022-07-29T07:07:22;99207.40;;;27.20
67822;BMP180;54434;50.096;20.082;2022-07-29T07:09:59;99205.40;;;27.10
67822;BMP180;54434;50.096;20.082;2022-07-29T07:12:35;99204.40;;;27.20
67822;BMP180;54434;50.096;20.082;2022-07-29T07:15:12;99210.60;;;27.20
67822;BMP180;54434;50.096;20.082;2022-07-29T07:17:48;99208.40;;;27.20
67822;BMP180;54434;50.096;20.082;2022-07-29T07:20:24;99203.80;;;27.22
67822;BMP180;54434;50.096;20.082;2022-07-29T07:23:00;99191.00;;;27.40
67822;BMP180;54434;50.096;20.082;2022-07-29T07:25:37;99192.60;;;27.40
67822;BMP180;54434;50.096;20.082;2022-07-29T07:28:13;99197.80;;;27.30
67822;BMP180;54434;50.096;20.082;2022-07-29T07:30:50;99194.20;;;27.12
67822;BMP180;54434;50.096;20.082;2022-07-29T07:33:26;99201.60;;;27.10
67822;BMP180;54434;50.096;20.082;2022-07-29T07:36:03;99198.60;;;26.92
67822;BMP180;54434;50.096;20.082;2022-07-29T07:38:39;99197.80;;;26.52
67822;BMP180;54434;50.096;20.082;2022-07-29T07:41:15;99199.40;;;26.40
67822;BMP180;54434;50.096;20.082;2022-07-29T07:43:51;99205.40;;;26.22
67822;BMP180;54434;50.096;20.082;2022-07-29T07:46:27;99208.20;;;26.00
67822;BMP180;54434;50.096;20.082;2022-07-29T07:49:03;99205.80;;;25.70
67822;BMP180;54434;50.096;20.082;2022-07-29T07:51:39;99204.40;;;25.50
67822;BMP180;54434;50.096;20.082;2022-07-29T07:54:24;99202.80;;;25.60
67822;BMP180;54434;50.096;20.082;2022-07-29T07:57:00;99207.80;;;25.40
67822;BMP180;54434;50.096;20.082;2022-07-29T07:59:36;99198.80;;;25.22
67822;BMP180;54434;50.096;20.082;2022-07-29T08:02:12;99205.80;;;25.40
67822;BMP180;54434;50.096;20.082;2022-07-29T08:04:49;99205.20;;;25.46
67822;BMP180;54434;50.096;20.082;2022-07-29T08:07:25;99198.80;;;25.60
67822;BMP180;54434;50.096;20.082;2022-07-29T08:10:01;99192.80;;;25.90
67822;BMP180;54434;50.096;20.082;2022-07-29T08:12:37;99185.60;;;26.12
67822;BMP180;54434;50.096;20.082;2022-07-29T08:15:13;99197.20;;;26.40
67822;BMP180;54434;50.096;20.082;2022-07-29T08:17:49;99189.00;;;26.40
67822;BMP180;54434;50.096;20.082;2022-07-29T08:20:26;99193.60;;;26.40
67822;BMP180;54434;50.096;20.082;2022-07-29T08:23:02;99193.20;;;26.40
67822;BMP180;54434;50.096;20.082;2022-07-29T08:25:40;99193.00;;;26.60
67822;BMP180;54434;50.096;20.082;2022-07-29T08:28:16;99186.20;;;26.70
67822;BMP180;54434;50.096;20.082;2022-07-29T08:30:52;99190.60;;;26.90
67822;BMP180;54434;50.096;20.082;2022-07-29T08:33:28;99188.20;;;26.80
67822;BMP180;54434;50.096;20.082;2022-07-29T08:36:06;99189.40;;;26.72
67822;BMP180;54434;50.096;20.082;2022-07-29T08:38:42;99198.40;;;26.80
67822;BMP180;54434;50.096;20.082;2022-07-29T08:41:19;99183.60;;;26.70
67822;BMP180;54434;50.096;20.082;2022-07-29T08:43:55;99191.40;;;26.80
67822;BMP180;54434;50.096;20.082;2022-07-29T08:46:31;99193.00;;;26.80
67822;BMP180;54434;50.096;20.082;2022-07-29T08:49:08;99196.80;;;26.80
67822;BMP180;54434;50.096;20.082;2022-07-29T08:51:46;99185.00;;;26.90
67822;BMP180;54434;50.096;20.082;2022-07-29T08:54:26;99186.40;;;27.10
67822;BMP180;54434;50.096;20.082;2022-07-29T08:57:04;99193.80;;;26.90
67822;BMP180;54434;50.096;20.082;2022-07-29T08:59:44;99188.40;;;26.66
67822;BMP180;54434;50.096;20.082;2022-07-29T09:02:26;99183.60;;;26.48
67822;BMP180;54434;50.096;20.082;2022-07-29T09:05:06;99182.00;;;26.30
67822;BMP180;54434;50.096;20.082;2022-07-29T09:07:43;99182.20;;;26.30
67822;BMP180;54434;50.096;20.082;2022-07-29T09:10:23;99174.20;;;26.42
67822;BMP180;54434;50.096;20.082;2022-07-29T09:13:00;99180.80;;;26.50
67822;BMP180;54434;50.096;20.082;2022-07-29T09:15:36;99180.00;;;26.50
67822;BMP180;54434;50.096;20.082;2022-07-29T09:18:13;99177.60;;;26.40
67822;BMP180;54434;50.096;20.082;2022-07-29T09:21:11;99182.80;;;26.20
67822;BMP180;54434;50.096;20.082;2022-07-29T09:24:09;99173.80;;;26.00
67822;BMP180;54434;50.096;20.082;2022-07-29T09:26:47;99185.60;;;26.00
67822;BMP180;54434;50.096;20.082;2022-07-29T09:29:26;99179.00;;;25.96
67822;BMP180;54434;50.096;20.082;2022-07-29T09:32:11;99179.80;;;25.90
67822;BMP180;54434;50.096;20.082;2022-07-29T09:34:47;99176.20;;;25.90
67822;BMP180;54434;50.096;20.082;2022-07-29T09:37:31;99174.80;;;25.90
67822;BMP180;54434;50.096;20.082;2022-07-29T09:40:17;99182.20;;;25.90
67822;BMP180;54434;50.096;20.082;2022-07-29T09:42:54;99171.80;;;25.80
67822;BMP180;54434;50.096;20.082;2022-07-29T09:45:34;99163.60;;;25.80
67822;BMP180;54434;50.096;20.082;2022-07-29T09:48:21;99163.80;;;26.00
67822;BMP180;54434;50.096;20.082;2022-07-29T09:50:58;99165.00;;;26.00
67822;BMP180;54434;50.096;20.082;2022-07-29T09:53:39;99150.00;;;25.94
67822;BMP180;54434;50.096;20.082;2022-07-29T09:56:15;99151.00;;;26.00
67822;BMP180;54434;50.096;20.082;2022-07-29T09:59:08;99150.00;;;26.00
67822;BMP180;54434;50.096;20.082;2022-07-29T10:01:45;99152.80;;;26.00
67822;BMP180;54434;50.096;20.082;2022-07-29T10:04:22;99144.40;;;25.90
67822;BMP180;54434;50.096;20.082;2022-07-29T10:07:03;99143.00;;;25.90
67822;BMP180;54434;50.096;20.082;2022-07-29T10:09:40;99143.80;;;26.00
67822;BMP180;54434;50.096;20.082;2022-07-29T10:12:25;99143.20;;;26.00
67822;BMP180;54434;50.096;20.082;2022-07-29T10:15:05;99137.60;;;26.10
67822;BMP180;54434;50.096;20.082;2022-07-29T10:17:42;99135.00;;;26.10
67822;BMP180;54434;50.096;20.082;2022-07-29T10:20:18;99135.00;;;26.10
67822;BMP180;54434;50.096;20.082;2022-07-29T10:22:55;99131.20;;;26.00
67822;BMP180;54434;50.096;20.082;2022-07-29T10:25:32;99133.40;;;26.00
67822;BMP180;54434;50.096;20.082;2022-07-29T10:28:09;99123.20;;;26.10
67822;BMP180;54434;50.096;20.082;2022-07-29T10:30:52;99120.40;;;26.20
67822;BMP180;54434;50.096;20.082;2022-07-29T10:33:51;99126.40;;;26.30
67822;BMP180;54434;50.096;20.082;2022-07-29T10:36:48;99122.80;;;26.40
67822;BMP180;54434;50.096;20.082;2022-07-29T10:39:50;99124.20;;;26.54
67822;BMP180;54434;50.096;20.082;2022-07-29T10:42:35;99130.20;;;26.50
67822;BMP180;54434;50.096;20.082;2022-07-29T10:45:20;99117.00;;;26.54
67822;BMP180;54434;50.096;20.082;2022-07-29T10:48:07;99121.60;;;26.70
67822;BMP180;54434;50.096;20.082;2022-07-29T10:51:02;99121.80;;;26.80
67822;BMP180;54434;50.096;20.082;2022-07-29T10:53:52;99124.40;;;26.76
67822;BMP180;54434;50.096;20.082;2022-07-29T10:56:32;99115.60;;;26.70
67822;BMP180;54434;50.096;20.082;2022-07-29T10:59:29;99114.60;;;26.60
67822;BMP180;54434;50.096;20.082;2022-07-29T11:02:52;99098.00;;;26.50
67822;BMP180;54434;50.096;20.082;2022-07-29T11:05:30;99105.20;;;26.60
67822;BMP180;54434;50.096;20.082;2022-07-29T11:08:28;99098.60;;;26.60
67822;BMP180;54434;50.096;20.082;2022-07-29T11:11:37;99101.20;;;26.70
67822;BMP180;54434;50.096;20.082;2022-07-29T11:14:58;99104.60;;;26.70
67822;BMP180;54434;50.096;20.082;2022-07-29T11:18:10;99097.60;;;26.70
67822;BMP180;54434;50.096;20.082;2022-07-29T11:20:52;99093.60;;;26.60
67822;BMP180;54434;50.096;20.082;2022-07-29T11:23:32;99092.40;;;26.54
67822;BMP180;54434;50.096;20.082;2022-07-29T11:26:22;99090.00;;;26.60
67822;BMP180;54434;50.096;20.082;2022-07-29T11:29:18;99087.40;;;26.60
67822;BMP180;54434;50.096;20.082;2022-07-29T11:32:12;99089.20;;;26.60
67822;BMP180;54434;50.096;20.082;2022-07-29T11:35:18;99087.60;;;26.60
67822;BMP180;54434;50.096;20.082;2022-07-29T11:38:30;99087.20;;;26.70
67822;BMP180;54434;50.096;20.082;2022-07-29T11:41:28;99088.80;;;26.70
67822;BMP180;54434;50.096;20.082;2022-07-29T11:44:06;99094.00;;;26.70
67822;BMP180;54434;50.096;20.082;2022-07-29T11:46:51;99083.00;;;26.70
67822;BMP180;54434;50.096;20.082;2022-07-29T11:49:29;99082.20;;;26.80
67822;BMP180;54434;50.096;20.082;2022-07-29T11:52:08;99086.20;;;27.02
67822;BMP180;54434;50.096;20.082;2022-07-29T11:54:48;99094.20;;;27.20
67822;BMP180;54434;50.096;20.082;2022-07-29T11:57:33;99083.40;;;27.40
67822;BMP180;54434;50.096;20.082;2022-07-29T12:00:37;99077.60;;;27.54
67822;BMP180;54434;50.096;20.082;2022-07-29T12:03:25;99068.40;;;27.70
67822;BMP180;54434;50.096;20.082;2022-07-29T12:06:17;99076.80;;;27.80
67822;BMP180;54434;50.096;20.082;2022-07-29T12:08:54;99068.00;;;27.86
67822;BMP180;54434;50.096;20.082;2022-07-29T12:11:31;99069.80;;;27.90
67822;BMP180;54434;50.096;20.082;2022-07-29T12:14:08;99067.40;;;27.90
67822;BMP180;54434;50.096;20.082;2022-07-29T12:16:44;99054.00;;;27.90
67822;BMP180;54434;50.096;20.082;2022-07-29T12:19:22;99047.60;;;27.84
67822;BMP180;54434;50.096;20.082;2022-07-29T12:21:59;99058.00;;;27.90
67822;BMP180;54434;50.096;20.082;2022-07-29T12:24:48;99055.40;;;27.90
67822;BMP180;54434;50.096;20.082;2022-07-29T12:27:30;99052.20;;;27.84
67822;BMP180;54434;50.096;20.082;2022-07-29T12:30:16;99048.60;;;27.80
67822;BMP180;54434;50.096;20.082;2022-07-29T12:32:53;99062.20;;;27.70
67822;BMP180;54434;50.096;20.082;2022-07-29T12:35:30;99056.80;;;27.60
67822;BMP180;54434;50.096;20.082;2022-07-29T12:38:07;99043.60;;;27.60
67822;BMP180;54434;50.096;20.082;2022-07-29T12:40:47;99053.20;;;27.60
67822;BMP180;54434;50.096;20.082;2022-07-29T12:43:25;99035.00;;;27.60
67822;BMP180;54434;50.096;20.082;2022-07-29T12:46:15;99032.40;;;27.60
67822;BMP180;54434;50.096;20.082;2022-07-29T12:48:56;99041.40;;;27.60
67822;BMP180;54434;50.096;20.082;2022-07-29T12:51:39;99034.00;;;27.60
67822;BMP180;54434;50.096;20.082;2022-07-29T12:54:16;99024.60;;;27.50
67822;BMP180;54434;50.096;20.082;2022-07-29T12:57:02;99034.00;;;27.40
67822;BMP180;54434;50.096;20.082;2022-07-29T12:59:38;99026.40;;;27.30
67822;BMP180;54434;50.096;20.082;2022-07-29T13:02:26;99014.80;;;27.22
67822;BMP180;54434;50.096;20.082;2022-07-29T13:05:04;99020.80;;;27.20
67822;BMP180;54434;50.096;20.082;2022-07-29T13:07:41;99012.60;;;27.10
67822;BMP180;54434;50.096;20.082;2022-07-29T13:10:36;99011.80;;;27.20
67822;BMP180;54434;50.096;20.082;2022-07-29T13:13:15;99009.40;;;27.20
67822;BMP180;54434;50.096;20.082;2022-07-29T13:16:08;99014.60;;;27.24
67822;BMP180;54434;50.096;20.082;2022-07-29T13:18:45;99003.20;;;27.20
67822;BMP180;54434;50.096;20.082;2022-07-29T13:21:21;99008.00;;;27.20
67822;BMP180;54434;50.096;20.082;2022-07-29T13:23:57;99002.00;;;27.10
67822;BMP180;54434;50.096;20.082;2022-07-29T13:26:33;98999.60;;;27.00
67822;BMP180;54434;50.096;20.082;2022-07-29T13:29:09;98997.40;;;27.00
67822;BMP180;54434;50.096;20.082;2022-07-29T13:31:45;98999.80;;;26.90
67822;BMP180;54434;50.096;20.082;2022-07-29T13:34:21;98998.40;;;27.00
67822;BMP180;54434;50.096;20.082;2022-07-29T13:36:58;98998.00;;;27.08
67822;BMP180;54434;50.096;20.082;2022-07-29T13:39:34;98995.00;;;27.14
67822;BMP180;54434;50.096;20.082;2022-07-29T13:42:12;98995.20;;;27.30
67822;BMP180;54434;50.096;20.082;2022-07-29T13:44:48;98988.20;;;27.30
67822;BMP180;54434;50.096;20.082;2022-07-29T13:47:26;98983.80;;;27.40
67822;BMP180;54434;50.096;20.082;2022-07-29T13:50:09;98976.20;;;27.54
67822;BMP180;54434;50.096;20.082;2022-07-29T13:52:45;98973.00;;;27.72
67822;BMP180;54434;50.096;20.082;2022-07-29T13:55:23;98972.00;;;27.90
67822;BMP180;54434;50.096;20.082;2022-07-29T13:57:59;98967.60;;;27.98
67822;BMP180;54434;50.096;20.082;2022-07-29T14:00:37;98963.00;;;28.00
67822;BMP180;54434;50.096;20.082;2022-07-29T14:03:13;98966.40;;;28.00
67822;BMP180;54434;50.096;20.082;2022-07-29T14:05:50;98960.20;;;28.00
67822;BMP180;54434;50.096;20.082;2022-07-29T14:08:26;98963.60;;;27.92
67822;BMP180;54434;50.096;20.082;2022-07-29T14:11:02;98958.00;;;27.90
67822;BMP180;54434;50.096;20.082;2022-07-29T14:13:39;98962.80;;;27.80
67822;BMP180;54434;50.096;20.082;2022-07-29T14:16:15;98955.80;;;27.80
67822;BMP180;54434;50.096;20.082;2022-07-29T14:18:51;98956.80;;;27.70
67822;BMP180;54434;50.096;20.082;2022-07-29T14:21:27;98958.60;;;27.70
67822;BMP180;54434;50.096;20.082;2022-07-29T14:24:06;98951.20;;;27.68
67822;BMP180;54434;50.096;20.082;2022-07-29T14:26:51;98954.40;;;27.60
67822;BMP180;54434;50.096;20.082;2022-07-29T14:29:28;98949.40;;;27.60
67822;BMP180;54434;50.096;20.082;2022-07-29T14:32:12;98948.00;;;27.44
67822;BMP180;54434;50.096;20.082;2022-07-29T14:34:49;98940.80;;;27.30
67822;BMP180;54434;50.096;20.082;2022-07-29T14:37:25;98945.60;;;27.20
67822;BMP180;54434;50.096;20.082;2022-07-29T14:40:14;98940.20;;;27.10
67822;BMP180;54434;50.096;20.082;2022-07-29T14:42:50;98941.80;;;27.00
67822;BMP180;54434;50.096;20.082;2022-07-29T14:45:26;98938.60;;;27.00
67822;BMP180;54434;50.096;20.082;2022-07-29T14:48:03;98938.40;;;26.90
67822;BMP180;54434;50.096;20.082;2022-07-29T14:50:39;98928.20;;;26.90
67822;BMP180;54434;50.096;20.082;2022-07-29T14:53:15;98916.60;;;26.90
67822;BMP180;54434;50.096;20.082;2022-07-29T14:55:52;98918.00;;;26.80
67822;BMP180;54434;50.096;20.082;2022-07-29T14:58:28;98915.20;;;26.80
67822;BMP180;54434;50.096;20.082;2022-07-29T15:01:04;98911.60;;;26.70
67822;BMP180;54434;50.096;20.082;2022-07-29T15:03:40;98911.80;;;26.70
67822;BMP180;54434;50.096;20.082;2022-07-29T15:06:16;98910.00;;;26.68
67822;BMP180;54434;50.096;20.082;2022-07-29T15:08:52;98919.40;;;26.60
67822;BMP180;54434;50.096;20.082;2022-07-29T15:11:28;98921.20;;;26.60
67822;BMP180;54434;50.096;20.082;2022-07-29T15:14:10;98922.20;;;26.50